createdAt,value
2022-10-02T00:02:06.509Z,62.66
2022-10-02T00:07:11.828Z,62.58
2022-10-02T00:12:17.122Z,62.74
2022-10-02T00:17:22.351Z,62.94
2022-10-02T00:22:34.191Z,62.93
2022-10-02T00:27:50.173Z,62.61
2022-10-02T00:32:59.800Z,62.84
2022-10-02T00:38:10.026Z,62.61
2022-10-02T00:43:21.929Z,62.72
2022-10-02T00:48:33.837Z,62.73
2022-10-02T00:53:41.091Z,63.07
2022-10-02T00:58:51.173Z,62.78
2022-10-02T01:03:56.157Z,62.73
2022-10-02T01:09:01.057Z,62.74
2022-10-02T01:14:05.217Z,62.79
2022-10-02T01:19:15.261Z,62.87
2022-10-02T01:24:22.410Z,63.04
2022-10-02T01:29:26.369Z,62.88
2022-10-02T01:34:30.767Z,62.57
2022-10-02T01:39:34.888Z,62.84
2022-10-02T01:44:38.609Z,62.83
2022-10-02T01:49:47.748Z,62.88
2022-10-02T01:55:05.199Z,62.84
2022-10-02T02:00:10.741Z,62.70
2022-10-02T02:05:20.028Z,62.84
2022-10-02T02:10:27.107Z,63.05
2022-10-02T02:15:35.307Z,63.08
2022-10-02T02:20:43.671Z,62.95
2022-10-02T02:25:49.712Z,62.92
2022-10-02T02:30:54.060Z,62.71
2022-10-02T02:36:00.967Z,62.85
2022-10-02T02:41:06.137Z,62.94
2022-10-02T02:46:13.917Z,63.16
2022-10-02T02:51:21.327Z,62.99
2022-10-02T02:56:27.247Z,62.83
2022-10-02T03:01:30.847Z,62.99
2022-10-02T03:06:37.595Z,63.14
2022-10-02T03:11:46.351Z,63.07
2022-10-02T03:16:56.012Z,63.07
2022-10-02T03:22:05.151Z,62.88
2022-10-02T03:27:12.247Z,62.84
2022-10-02T03:32:16.978Z,62.80
2022-10-02T03:37:21.528Z,62.78
2022-10-02T03:42:26.373Z,62.95
2022-10-02T03:47:29.889Z,62.96
2022-10-02T03:52:34.967Z,62.73
2022-10-02T03:57:38.671Z,63.04
2022-10-02T04:02:44.970Z,63.12
2022-10-02T04:07:52.776Z,62.97
2022-10-02T04:13:00.197Z,63.04
2022-10-02T04:18:06.638Z,62.83
2022-10-02T04:23:14.395Z,62.96
2022-10-02T04:28:20.375Z,62.92
2022-10-02T04:33:25.021Z,62.95
2022-10-02T04:38:42.368Z,62.98
2022-10-02T04:43:55.447Z,63.17
2022-10-02T04:49:19.551Z,62.86
2022-10-02T04:54:37.699Z,63.19
2022-10-02T04:59:46.418Z,62.81
2022-10-02T05:05:00.597Z,63.15
2022-10-02T05:10:11.497Z,62.89
2022-10-02T05:15:22.691Z,62.71
2022-10-02T05:20:43.729Z,62.93
2022-10-02T05:26:01.261Z,62.80
2022-10-02T05:31:10.727Z,63.00
2022-10-02T05:36:22.473Z,63.18
2022-10-02T05:41:30.948Z,62.96
2022-10-02T05:46:37.243Z,62.85
2022-10-02T05:51:44.940Z,63.02
2022-10-02T05:56:54.497Z,62.94
2022-10-02T06:01:58.651Z,62.93
2022-10-02T06:07:07.258Z,62.85
2022-10-02T06:12:15.068Z,62.85
2022-10-02T06:17:22.477Z,62.88
2022-10-02T06:22:29.179Z,62.85
2022-10-02T06:27:38.727Z,63.06
2022-10-02T06:32:46.168Z,62.88
2022-10-02T06:38:01.197Z,63.02
2022-10-02T06:43:09.905Z,62.88
2022-10-02T06:48:18.998Z,62.81
2022-10-02T06:53:30.503Z,62.73
2022-10-02T06:58:50.166Z,63.09
2022-10-02T07:04:02.107Z,62.77
2022-10-02T07:09:22.307Z,62.80
2022-10-02T07:14:31.038Z,62.80
2022-10-02T07:19:47.967Z,62.82
2022-10-02T07:25:00.118Z,62.75
2022-10-02T07:30:05.858Z,62.87
2022-10-02T07:35:19.526Z,62.63
2022-10-02T07:40:30.718Z,62.81
2022-10-02T07:45:39.512Z,62.90
2022-10-02T07:50:49.008Z,62.76
2022-10-02T07:55:52.928Z,62.98
2022-10-02T08:01:00.229Z,62.68
2022-10-02T08:06:05.729Z,62.75
2022-10-02T08:11:11.456Z,62.99
2022-10-02T08:16:16.731Z,62.49
2022-10-02T08:21:22.068Z,62.88
2022-10-02T08:26:34.538Z,62.67
2022-10-02T08:31:39.195Z,62.76
2022-10-02T08:36:50.218Z,62.78
2022-10-02T08:42:11.547Z,62.79
2022-10-02T08:47:33.000Z,62.84
2022-10-02T08:52:53.712Z,62.78
2022-10-02T08:58:20.682Z,62.65
2022-10-02T09:03:56.137Z,62.64
2022-10-02T09:09:14.711Z,62.73
2022-10-02T09:14:35.009Z,62.51
2022-10-02T09:19:48.928Z,62.52
2022-10-02T09:25:10.708Z,62.52
2022-10-02T09:30:19.740Z,62.62
2022-10-02T09:35:37.442Z,62.12
2022-10-02T09:40:56.268Z,62.11
2022-10-02T09:46:11.729Z,62.54
2022-10-02T09:51:27.679Z,62.32
2022-10-02T09:56:44.288Z,62.43
2022-10-02T10:02:22.245Z,62.26
2022-10-02T10:07:49.288Z,62.41
2022-10-02T10:13:20.248Z,62.37
2022-10-02T10:18:42.168Z,62.60
2022-10-02T10:24:00.481Z,62.40
2022-10-02T10:29:21.138Z,62.23
2022-10-02T10:34:39.059Z,62.52
2022-10-02T10:40:11.652Z,62.39
2022-10-02T10:45:27.592Z,62.40
2022-10-02T10:50:39.937Z,62.30
2022-10-02T10:56:11.608Z,62.36
2022-10-02T11:01:18.439Z,62.37
2022-10-02T11:06:30.939Z,62.42
2022-10-02T11:11:40.371Z,62.58
2022-10-02T11:17:01.098Z,62.35
2022-10-02T11:22:20.440Z,62.51
2022-10-02T11:27:33.778Z,62.43
2022-10-02T11:32:57.318Z,62.39
2022-10-02T11:38:08.826Z,62.52
2022-10-02T11:43:24.689Z,62.33
2022-10-02T11:48:47.906Z,62.54
2022-10-02T11:54:07.496Z,62.45
2022-10-02T11:59:22.781Z,62.35
2022-10-02T12:04:38.974Z,62.47
2022-10-02T12:09:51.113Z,62.38
2022-10-02T12:14:59.649Z,62.39
2022-10-02T12:20:24.885Z,62.34
2022-10-02T12:25:49.889Z,62.37
2022-10-02T12:31:01.078Z,62.30
2022-10-02T12:36:14.126Z,62.53
2022-10-02T12:41:33.785Z,62.19
2022-10-02T12:46:49.213Z,62.15
2022-10-02T12:52:01.327Z,61.88
2022-10-02T12:57:48.929Z,62.19
2022-10-02T13:03:10.172Z,62.03
2022-10-02T13:08:31.322Z,62.20
2022-10-02T13:13:50.401Z,62.17
2022-10-02T13:19:00.457Z,62.17
2022-10-02T13:24:16.658Z,62.44
2022-10-02T13:29:36.707Z,62.52
2022-10-02T13:34:49.219Z,62.64
2022-10-02T13:40:03.748Z,62.35
2022-10-02T13:45:12.077Z,62.58
2022-10-02T13:50:32.118Z,62.30
2022-10-02T13:55:38.417Z,62.36
2022-10-02T14:00:50.249Z,62.40
2022-10-02T14:05:58.044Z,62.18
2022-10-02T14:11:09.617Z,62.08
2022-10-02T14:16:29.451Z,61.99
2022-10-02T14:21:35.232Z,62.55
2022-10-02T14:26:51.798Z,62.40
2022-10-02T14:32:06.091Z,62.15
2022-10-02T14:37:26.177Z,62.33
2022-10-02T14:42:42.299Z,62.18
2022-10-02T14:47:50.607Z,62.21
2022-10-02T14:53:09.298Z,62.27
2022-10-02T14:58:22.753Z,62.03
2022-10-02T15:03:41.610Z,61.98
2022-10-02T15:08:48.587Z,62.10
2022-10-02T15:13:56.418Z,62.03
2022-10-02T15:19:05.669Z,62.15
2022-10-02T15:24:29.349Z,62.46
2022-10-02T15:29:39.112Z,62.22
2022-10-02T15:34:47.897Z,62.30
2022-10-02T15:40:00.832Z,62.59
2022-10-02T15:45:16.802Z,62.60
2022-10-02T15:50:30.752Z,62.66
2022-10-02T15:55:39.079Z,62.53
2022-10-02T16:01:01.108Z,62.43
2022-10-02T16:06:11.907Z,62.44
2022-10-02T16:11:29.250Z,62.48
2022-10-02T16:16:46.713Z,62.40
2022-10-02T16:22:06.997Z,62.57
2022-10-02T16:27:25.995Z,62.52
2022-10-02T16:32:34.025Z,62.24
2022-10-02T16:37:41.198Z,62.30
2022-10-02T16:42:49.859Z,62.55
2022-10-02T16:47:56.122Z,62.22
2022-10-02T16:53:03.534Z,62.53
2022-10-02T16:58:13.211Z,62.46
2022-10-02T17:03:22.703Z,62.74
2022-10-02T17:08:30.552Z,62.44
2022-10-02T17:13:37.909Z,62.59
2022-10-02T17:18:44.177Z,62.44
2022-10-02T17:23:55.941Z,62.42
2022-10-02T17:29:02.138Z,62.36
2022-10-02T17:34:17.515Z,62.23
2022-10-02T17:39:33.822Z,62.61
2022-10-02T17:44:45.321Z,62.66
2022-10-02T17:49:58.683Z,62.61
2022-10-02T17:55:27.070Z,62.44
2022-10-02T18:00:34.638Z,62.80
2022-10-02T18:05:50.085Z,62.74
2022-10-02T18:11:00.757Z,62.52
2022-10-02T18:16:18.532Z,62.60
2022-10-02T18:21:29.498Z,62.66
2022-10-02T18:26:43.666Z,62.58
2022-10-02T18:31:59.744Z,62.91
2022-10-02T18:37:16.289Z,62.54
2022-10-02T18:42:29.638Z,62.72
2022-10-02T18:47:42.435Z,62.69
2022-10-02T18:52:51.106Z,62.90
2022-10-02T18:58:03.970Z,63.09
2022-10-02T19:03:20.241Z,62.54
2022-10-02T19:08:27.238Z,62.90
2022-10-02T19:13:39.358Z,62.91
2022-10-02T19:31:22.781Z,62.73
2022-10-02T19:36:30.088Z,62.84
2022-10-02T19:41:41.600Z,62.94
2022-10-02T20:21:52.739Z,62.73
2022-10-02T20:27:00.908Z,62.91
2022-10-02T20:32:07.596Z,63.11
2022-10-02T20:37:13.468Z,63.18
2022-10-02T20:42:20.873Z,63.08
2022-10-02T20:58:51.419Z,62.97
2022-10-02T21:04:21.041Z,62.98
2022-10-02T21:09:38.479Z,62.79
2022-10-02T21:15:05.756Z,62.91
2022-10-02T21:20:49.718Z,63.20
2022-10-02T21:26:10.532Z,63.05
2022-10-02T21:31:24.522Z,62.91
2022-10-02T21:36:33.318Z,62.82
2022-10-02T21:41:51.801Z,63.13
2022-10-02T21:47:17.757Z,62.87
2022-10-02T21:52:41.530Z,63.01
2022-10-02T21:58:02.660Z,63.06
2022-10-02T22:03:23.158Z,63.24
2022-10-02T22:08:30.947Z,63.24
2022-10-02T22:13:37.573Z,63.37
2022-10-02T22:18:46.048Z,63.05
2022-10-02T22:24:00.777Z,63.28
2022-10-02T22:29:09.307Z,62.97
2022-10-02T22:34:22.352Z,63.11
2022-10-02T22:39:31.018Z,63.01
2022-10-02T22:44:36.972Z,63.33
2022-10-02T22:49:44.217Z,63.24
2022-10-02T22:54:52.487Z,63.32
2022-10-02T22:59:59.787Z,63.38
2022-10-02T23:05:05.167Z,63.24
2022-10-02T23:10:16.309Z,63.27
2022-10-02T23:15:28.768Z,63.05
2022-10-02T23:20:36.175Z,63.21
2022-10-02T23:25:44.798Z,63.25
2022-10-02T23:30:51.150Z,63.29
2022-10-02T23:35:59.177Z,63.43
2022-10-02T23:41:23.306Z,63.16
2022-10-02T23:46:29.443Z,63.40
2022-10-02T23:51:41.679Z,63.35
2022-10-02T23:57:02.207Z,63.41
